METAR Data
IDs: Format: Raw Decoded Include TAF

Data at: 1136 UTC 28 Sep 2021

METAR for:KSPB (Scappoose Ind Airpar, OR, US)
Text:KSPB 281053Z AUTO 17005KT 10SM -RA BKN016 BKN021 OVC060 12/11 A2997 RMK AO2 RAE07B31 SLP150 P0001 T01220106
Temperature: 12.2°C ( 54°F)
Dewpoint: 10.6°C ( 51°F) [RH = 90%]
Pressure (altimeter):29.97 inches Hg (1015.0 mb) [Sea level pressure: 1015.0 mb]
Winds:from the S (170 degrees) at 6 MPH (5 knots; 2.6 m/s)
Visibility:10 or more sm (16+ km)
Ceiling:1600 feet AGL
Clouds: broken clouds at 1600 feet AGL, broken clouds at 2100 feet AGL, overcast cloud deck at 6000 feet AGL
Weather:-RA (light rain)
QC Flag:automated observation with no human augmentation